createdAt,value
2023-12-26T00:00:40.333Z,96003.16
2023-12-26T00:03:08.123Z,95950.81
2023-12-26T00:05:35.242Z,95995.22
2023-12-26T00:08:05.142Z,96027.78
2023-12-26T00:10:31.944Z,95999.31
2023-12-26T00:13:01.288Z,95929.63
2023-12-26T00:15:28.603Z,95959.25
2023-12-26T00:17:55.428Z,96030.91
2023-12-26T00:20:22.361Z,96022.03
2023-12-26T00:22:49.037Z,95989.47
2023-12-26T00:25:15.755Z,96013.97
2023-12-26T00:27:43.977Z,95791.34
2023-12-26T00:30:11.120Z,95987.22
2023-12-26T00:32:37.971Z,96016.72
2023-12-26T00:35:05.420Z,95945.56
2023-12-26T00:37:33.215Z,95989.47
2023-12-26T00:40:02.965Z,95996.41
2023-12-26T00:42:32.024Z,96018.91
2023-12-26T00:44:59.944Z,95993.09
2023-12-26T00:47:26.799Z,96011.75
2023-12-26T00:49:57.245Z,96020.19
2023-12-26T00:52:24.018Z,95983.56
2023-12-26T00:54:50.717Z,95999.09
2023-12-26T00:57:17.499Z,95984.81
2023-12-26T00:59:45.353Z,96019.22
2023-12-26T01:02:12.296Z,96028.28
2023-12-26T01:04:38.995Z,95999.88
2023-12-26T01:07:06.610Z,96005.22
2023-12-26T01:09:33.340Z,95874.59
2023-12-26T01:11:59.992Z,95974.94
2023-12-26T01:14:26.640Z,95996.66
2023-12-26T01:16:53.312Z,96059.09
2023-12-26T01:19:20.027Z,95888.06
2023-12-26T01:21:46.733Z,96013.09
2023-12-26T01:24:13.492Z,95961.25
2023-12-26T01:26:40.232Z,95941.47
2023-12-26T01:29:08.649Z,96057.66
2023-12-26T01:31:36.750Z,95965.91
2023-12-26T01:34:06.580Z,95946.50
2023-12-26T01:36:36.636Z,96019.56
2023-12-26T01:39:05.314Z,96024.41
2023-12-26T01:41:31.959Z,95803.78
2023-12-26T01:43:58.971Z,96026.47
2023-12-26T01:46:25.653Z,95870.13
2023-12-26T01:48:53.080Z,95934.28
2023-12-26T01:51:19.979Z,95964.75
2023-12-26T01:53:46.714Z,95827.13
2023-12-26T01:56:16.265Z,95907.63
2023-12-26T01:58:44.149Z,95959.94
2023-12-26T02:01:10.976Z,95914.75
2023-12-26T02:03:37.728Z,95931.41
2023-12-26T02:06:04.778Z,95975.97
2023-12-26T02:08:31.554Z,95971.72
2023-12-26T02:10:58.534Z,95964.13
2023-12-26T02:13:25.179Z,95976.91
2023-12-26T02:15:52.598Z,95917.78
2023-12-26T02:18:19.446Z,95961.66
2023-12-26T02:20:46.376Z,95945.25
2023-12-26T02:23:13.165Z,95832.75
2023-12-26T02:25:39.826Z,95870.28
2023-12-26T02:28:07.027Z,95999.97
2023-12-26T02:30:33.787Z,95899.25
2023-12-26T02:33:01.664Z,95809.56
2023-12-26T02:35:28.861Z,95952.66
2023-12-26T02:37:55.597Z,95910.75
2023-12-26T02:40:22.397Z,95789.03
2023-12-26T02:42:49.056Z,95976.25
2023-12-26T02:45:16.369Z,95863.53
2023-12-26T02:47:43.283Z,95844.97
2023-12-26T02:50:10.028Z,95860.97
2023-12-26T02:52:36.728Z,95916.28
2023-12-26T02:55:03.555Z,95896.88
2023-12-26T02:57:30.234Z,95909.78
2023-12-26T02:59:57.050Z,95900.41
2023-12-26T03:02:23.768Z,95942.47
2023-12-26T03:04:51.085Z,95896.22
2023-12-26T03:07:17.758Z,95961.38
2023-12-26T03:09:44.373Z,95919.56
2023-12-26T03:12:11.164Z,95860.53
2023-12-26T03:14:37.857Z,95983.41
2023-12-26T03:17:04.744Z,95930.28
2023-12-26T03:19:31.569Z,95888.22
2023-12-26T03:21:58.374Z,95939.38
2023-12-26T03:24:24.990Z,95849.91
2023-12-26T03:26:51.787Z,95925.81
2023-12-26T03:29:18.453Z,95902.38
2023-12-26T03:31:45.535Z,95926.31
2023-12-26T03:34:13.085Z,95868.81
2023-12-26T03:36:44.799Z,95892.78
2023-12-26T03:39:11.691Z,95946.84
2023-12-26T03:41:38.505Z,95904.75
2023-12-26T03:44:05.447Z,95940.81
2023-12-26T03:46:32.083Z,95925.47
2023-12-26T03:48:58.900Z,95896.47
2023-12-26T03:51:25.697Z,95859.91
2023-12-26T03:53:52.356Z,95862.31
2023-12-26T03:56:19.019Z,95970.31
2023-12-26T03:58:45.891Z,95878.34
2023-12-26T04:01:14.003Z,95933.22
2023-12-26T04:03:40.793Z,95940.53
2023-12-26T04:06:07.499Z,95915.78
2023-12-26T04:08:34.110Z,95917.34
2023-12-26T04:11:00.798Z,95887.94
2023-12-26T04:13:27.461Z,95885.16
2023-12-26T04:15:54.118Z,95743.28
2023-12-26T04:18:21.026Z,95912.00
2023-12-26T04:20:47.823Z,95853.28
2023-12-26T04:23:14.454Z,95795.38
2023-12-26T04:25:41.145Z,95864.63
2023-12-26T04:28:07.959Z,95868.19
2023-12-26T04:30:34.760Z,95908.16
2023-12-26T04:33:02.531Z,95930.19
2023-12-26T04:35:29.297Z,95906.03
2023-12-26T04:37:55.940Z,95892.78
2023-12-26T04:40:22.699Z,95897.47
2023-12-26T04:42:49.339Z,95871.44
2023-12-26T04:45:16.349Z,95940.56
2023-12-26T04:47:43.406Z,95908.09
2023-12-26T04:50:10.137Z,95866.63
2023-12-26T04:52:36.835Z,95750.03
2023-12-26T04:55:03.875Z,95855.63
2023-12-26T04:57:30.656Z,95823.44
2023-12-26T04:59:57.332Z,95859.69
2023-12-26T05:02:24.087Z,95923.63
2023-12-26T05:04:50.911Z,95824.53
2023-12-26T05:07:17.566Z,95838.84
2023-12-26T05:09:44.750Z,95847.88
2023-12-26T05:12:11.493Z,95931.38
2023-12-26T05:14:38.302Z,95856.75
2023-12-26T05:17:04.984Z,95918.91
2023-12-26T05:19:31.814Z,95871.53
2023-12-26T05:21:58.504Z,95847.91
2023-12-26T05:24:25.165Z,95870.72
2023-12-26T05:26:51.860Z,95892.72
2023-12-26T05:29:18.537Z,95917.47
2023-12-26T05:31:45.834Z,95873.16
2023-12-26T05:34:12.641Z,95897.78
2023-12-26T05:36:39.464Z,95909.91
2023-12-26T05:39:07.783Z,95810.88
2023-12-26T05:41:34.420Z,95836.25
2023-12-26T05:44:01.082Z,95780.97
2023-12-26T05:46:30.932Z,95865.59
2023-12-26T05:48:58.328Z,95907.47
2023-12-26T05:51:26.355Z,95851.19
2023-12-26T05:53:53.242Z,95828.25
2023-12-26T05:56:20.468Z,95792.81
2023-12-26T05:58:47.188Z,95767.75
2023-12-26T06:01:13.910Z,95809.50
2023-12-26T06:03:40.645Z,95837.00
2023-12-26T06:06:11.367Z,95775.53
2023-12-26T06:08:38.696Z,95751.16
2023-12-26T06:11:05.361Z,95817.44
2023-12-26T06:13:32.047Z,95806.91
2023-12-26T06:15:58.729Z,95896.19
2023-12-26T06:18:25.644Z,95758.53
2023-12-26T06:20:52.421Z,95833.91
2023-12-26T06:23:19.274Z,95829.56
2023-12-26T06:25:47.344Z,95886.47
2023-12-26T06:28:14.012Z,95904.94
2023-12-26T06:30:40.720Z,95849.91
2023-12-26T06:33:07.548Z,95867.22
2023-12-26T06:35:34.307Z,95864.47
2023-12-26T06:38:01.037Z,95880.81
2023-12-26T06:40:27.819Z,95881.59
2023-12-26T06:42:54.562Z,95842.16
2023-12-26T06:45:21.305Z,95874.19
2023-12-26T06:47:48.102Z,95771.81
2023-12-26T06:50:14.865Z,95855.13
2023-12-26T06:52:41.529Z,95888.75
2023-12-26T06:55:08.471Z,95898.63
2023-12-26T06:57:35.125Z,95845.72
2023-12-26T07:00:02.044Z,95879.19
2023-12-26T07:02:29.204Z,95881.94
2023-12-26T07:04:55.880Z,95744.00
2023-12-26T07:07:22.559Z,95873.19
2023-12-26T07:09:50.956Z,95816.63
2023-12-26T07:12:18.302Z,95789.13
2023-12-26T07:14:45.100Z,95893.28
2023-12-26T07:17:11.781Z,95939.38
2023-12-26T07:19:38.613Z,95896.84
2023-12-26T07:22:05.443Z,95853.47
2023-12-26T07:24:32.091Z,95921.88
2023-12-26T07:26:58.823Z,95856.88
2023-12-26T07:29:28.342Z,95850.25
2023-12-26T07:31:55.074Z,95953.59
2023-12-26T07:34:21.841Z,95963.16
2023-12-26T07:36:48.613Z,95884.06
2023-12-26T07:39:16.354Z,95871.13
2023-12-26T07:41:43.217Z,95947.94
2023-12-26T07:44:10.109Z,95804.03
2023-12-26T07:46:37.741Z,95945.19
2023-12-26T07:49:04.682Z,95782.00
2023-12-26T07:51:31.628Z,95954.09
2023-12-26T07:53:58.305Z,95884.53
2023-12-26T07:56:26.707Z,95960.88
2023-12-26T07:58:54.082Z,95949.72
2023-12-26T08:01:20.763Z,95934.53
2023-12-26T08:03:47.555Z,95970.44
2023-12-26T08:06:14.342Z,95921.09
2023-12-26T08:08:41.173Z,95970.75
2023-12-26T08:11:07.866Z,95979.50
2023-12-26T08:13:34.531Z,95746.13
2023-12-26T08:16:01.598Z,95994.38
2023-12-26T08:18:28.392Z,95986.75
2023-12-26T08:20:55.122Z,95863.00
2023-12-26T08:23:21.823Z,95923.50
2023-12-26T08:25:48.580Z,96022.53
2023-12-26T08:28:15.276Z,95872.41
2023-12-26T08:30:42.114Z,96000.22
2023-12-26T08:33:09.178Z,95994.22
2023-12-26T08:35:36.043Z,96025.78
2023-12-26T08:38:02.896Z,95748.03
2023-12-26T08:40:29.595Z,96001.03
2023-12-26T08:42:56.398Z,96004.91
2023-12-26T08:45:23.270Z,96008.47
2023-12-26T08:47:51.071Z,95892.59
2023-12-26T08:50:20.846Z,95946.97
2023-12-26T08:52:47.922Z,96048.47
2023-12-26T08:55:15.932Z,96025.31
2023-12-26T08:57:42.642Z,96049.25
2023-12-26T09:00:11.214Z,96011.53
2023-12-26T09:02:39.187Z,95785.63
2023-12-26T09:05:09.226Z,95946.31
2023-12-26T09:07:35.865Z,95937.88
2023-12-26T09:10:03.688Z,96019.13
2023-12-26T09:12:30.357Z,96016.19
2023-12-26T09:14:57.053Z,95955.34
2023-12-26T09:17:23.958Z,95987.72
2023-12-26T09:19:50.986Z,95976.41
2023-12-26T09:22:18.207Z,96021.41
2023-12-26T09:24:44.892Z,96006.84
2023-12-26T09:27:11.947Z,95933.19
2023-12-26T09:29:38.773Z,96038.72
2023-12-26T09:32:05.885Z,95992.06
2023-12-26T09:36:59.474Z,95957.94
2023-12-26T09:39:26.313Z,95977.34
2023-12-26T09:41:54.204Z,96008.28
2023-12-26T09:44:23.983Z,96008.91
2023-12-26T09:46:53.031Z,95956.31
2023-12-26T09:49:19.885Z,95989.31
2023-12-26T09:51:46.841Z,96026.59
2023-12-26T09:54:13.820Z,95922.66
2023-12-26T09:56:41.851Z,96040.16
2023-12-26T09:59:08.880Z,96058.94
2023-12-26T10:01:35.542Z,96055.06
2023-12-26T10:04:04.547Z,96017.34
2023-12-26T10:06:31.639Z,95902.91
2023-12-26T10:08:58.981Z,96045.81
2023-12-26T10:11:27.804Z,96001.63
2023-12-26T10:13:55.829Z,96012.31
2023-12-26T10:16:22.840Z,95913.72
2023-12-26T10:18:51.652Z,96007.13
2023-12-26T10:21:18.908Z,96044.22
2023-12-26T10:23:46.547Z,96039.69
2023-12-26T10:26:13.305Z,96064.31
2023-12-26T10:28:40.372Z,96070.75
2023-12-26T10:31:12.236Z,96009.56
2023-12-26T10:33:39.074Z,96015.88
2023-12-26T10:36:06.827Z,96068.34
2023-12-26T10:38:33.998Z,95939.78
2023-12-26T10:41:15.680Z,95786.19
2023-12-26T10:43:42.444Z,96015.53
2023-12-26T10:46:09.274Z,96007.28
2023-12-26T10:48:36.579Z,96034.47
2023-12-26T10:51:03.652Z,96069.78
2023-12-26T10:54:16.233Z,96032.69
2023-12-26T10:56:43.362Z,96039.66
2023-12-26T10:59:10.191Z,96051.16
2023-12-26T11:01:36.979Z,96043.53
2023-12-26T11:04:03.799Z,96041.09
2023-12-26T11:06:30.803Z,95984.44
2023-12-26T11:08:57.630Z,96051.16
2023-12-26T11:11:24.304Z,96000.28
2023-12-26T11:13:51.285Z,96085.50
2023-12-26T11:16:17.957Z,96092.44
2023-12-26T11:18:45.227Z,96019.44
2023-12-26T11:21:12.123Z,96046.31
2023-12-26T11:23:38.891Z,96087.78
2023-12-26T11:26:05.572Z,96019.09
2023-12-26T11:28:32.193Z,96050.03
2023-12-26T11:30:58.972Z,96034.94
2023-12-26T11:33:25.914Z,96125.81
2023-12-26T11:35:52.746Z,96041.09
2023-12-26T11:38:19.642Z,96034.16
2023-12-26T11:40:46.311Z,96124.84
2023-12-26T11:43:12.991Z,96044.66
2023-12-26T11:45:39.626Z,96053.72
2023-12-26T11:48:06.396Z,96060.69
2023-12-26T11:50:33.235Z,96070.03
2023-12-26T11:53:00.038Z,96085.44
2023-12-26T11:55:26.699Z,96023.03
2023-12-26T11:57:53.334Z,96129.63
2023-12-26T12:00:20.048Z,96109.53
2023-12-26T12:02:46.775Z,96087.00
2023-12-26T12:05:15.024Z,96121.53
2023-12-26T12:07:41.670Z,96135.13
2023-12-26T12:10:09.931Z,96146.00
2023-12-26T12:12:36.631Z,96113.56
2023-12-26T12:15:03.761Z,96121.00
2023-12-26T12:17:30.480Z,96098.66
2023-12-26T12:19:57.243Z,96145.81
2023-12-26T12:22:27.217Z,96147.41
2023-12-26T12:24:55.137Z,96052.75
2023-12-26T12:27:23.068Z,96117.25
2023-12-26T12:29:59.645Z,96036.88
2023-12-26T12:32:33.313Z,96134.28
2023-12-26T12:35:19.163Z,96122.09
2023-12-26T12:37:49.690Z,96015.94
2023-12-26T12:40:16.741Z,96178.19
2023-12-26T12:42:43.513Z,96067.59
2023-12-26T12:45:10.312Z,96124.81
2023-12-26T12:47:37.363Z,96045.56
2023-12-26T12:50:04.951Z,96116.53
2023-12-26T12:52:48.015Z,96042.53
2023-12-26T12:55:14.683Z,96050.88
2023-12-26T12:57:41.458Z,96099.78
2023-12-26T13:00:08.100Z,96154.69
2023-12-26T13:02:34.822Z,96096.03
2023-12-26T13:05:01.541Z,96052.81
2023-12-26T13:07:28.251Z,96167.50
2023-12-26T13:09:54.896Z,96083.00
2023-12-26T13:12:21.579Z,96166.81
2023-12-26T13:14:48.351Z,96032.25
2023-12-26T13:17:15.129Z,96172.03
2023-12-26T13:19:41.902Z,96101.34
2023-12-26T13:22:16.505Z,96112.72
2023-12-26T13:24:49.241Z,96129.88
2023-12-26T13:27:22.631Z,96113.47
2023-12-26T13:29:49.318Z,96193.72
2023-12-26T13:32:16.030Z,96173.28
2023-12-26T13:34:42.742Z,96125.94
2023-12-26T13:37:09.448Z,96151.22
2023-12-26T13:39:36.156Z,96047.44
2023-12-26T13:42:03.061Z,96210.06
2023-12-26T13:44:29.748Z,96196.31
2023-12-26T13:46:56.376Z,96216.22
2023-12-26T13:49:23.229Z,95929.31
2023-12-26T13:51:50.253Z,96122.56
2023-12-26T13:54:23.996Z,96136.72
2023-12-26T13:56:50.870Z,95756.63
2023-12-26T13:59:17.544Z,96150.47
2023-12-26T14:01:44.218Z,96136.22
2023-12-26T14:04:11.077Z,96134.06
2023-12-26T14:06:37.911Z,96114.22
2023-12-26T14:09:05.071Z,96159.69
2023-12-26T14:11:31.820Z,96100.13
2023-12-26T14:13:58.833Z,96163.75
2023-12-26T14:16:25.640Z,96020.69
2023-12-26T14:18:52.512Z,96190.00
2023-12-26T14:21:19.384Z,96188.19
2023-12-26T14:23:46.132Z,96117.88
2023-12-26T14:26:12.969Z,96196.59
2023-12-26T14:28:39.745Z,96206.44
2023-12-26T14:31:06.560Z,96085.81
2023-12-26T14:33:33.570Z,96055.63
2023-12-26T14:36:00.707Z,96190.06
2023-12-26T14:38:27.406Z,96193.16
2023-12-26T14:40:57.586Z,96243.72
2023-12-26T14:43:24.720Z,96205.84
2023-12-26T14:45:51.377Z,96219.06
2023-12-26T14:48:18.216Z,96130.84
2023-12-26T14:50:46.022Z,96184.00
2023-12-26T14:53:12.735Z,96181.09
2023-12-26T14:55:39.365Z,96249.84
2023-12-26T14:58:06.622Z,96191.84
2023-12-26T15:00:33.595Z,96216.06
2023-12-26T15:03:00.490Z,96185.78
2023-12-26T15:05:27.558Z,96200.78
2023-12-26T15:07:54.314Z,96247.38
2023-12-26T15:10:21.217Z,96281.78
2023-12-26T15:12:47.833Z,96217.09
2023-12-26T15:15:14.645Z,96180.19
2023-12-26T15:17:41.832Z,96216.13
2023-12-26T15:20:12.153Z,96234.88
2023-12-26T15:22:39.426Z,96149.22
2023-12-26T15:25:06.395Z,96214.59
2023-12-26T15:27:33.127Z,96235.47
2023-12-26T15:29:59.945Z,96237.78
2023-12-26T15:32:26.611Z,96181.59
2023-12-26T15:34:53.398Z,96204.56
2023-12-26T15:37:20.102Z,96207.16
2023-12-26T15:39:46.892Z,96290.31
2023-12-26T15:42:13.653Z,96179.66
2023-12-26T15:44:42.155Z,96142.47
2023-12-26T15:47:11.578Z,96278.56
2023-12-26T15:49:38.462Z,96283.72
2023-12-26T15:52:05.387Z,96304.47
2023-12-26T15:54:32.508Z,96215.63
2023-12-26T15:56:59.469Z,96176.16
2023-12-26T15:59:26.190Z,96220.41
2023-12-26T16:01:52.865Z,96225.81
2023-12-26T16:04:19.620Z,96236.59
2023-12-26T16:06:46.529Z,96211.34
2023-12-26T16:09:13.476Z,96249.19
2023-12-26T16:11:40.316Z,96108.88
2023-12-26T16:14:09.269Z,96303.56
2023-12-26T16:16:42.265Z,96244.25
2023-12-26T16:19:11.160Z,96062.41
2023-12-26T16:21:40.800Z,96248.59
2023-12-26T16:24:08.028Z,96354.63
2023-12-26T16:26:34.877Z,96262.28
2023-12-26T16:29:01.694Z,96357.41
2023-12-26T16:31:28.530Z,96296.28
2023-12-26T16:33:55.802Z,96333.25
2023-12-26T16:36:22.801Z,96315.22
2023-12-26T16:38:49.547Z,96158.47
2023-12-26T16:41:16.267Z,96319.44
2023-12-26T16:43:43.001Z,96292.53
2023-12-26T16:46:10.232Z,96340.13
2023-12-26T16:48:39.997Z,96288.72
2023-12-26T16:51:08.218Z,96325.13
2023-12-26T16:53:38.366Z,96309.38
2023-12-26T16:56:09.289Z,96263.81
2023-12-26T16:58:36.643Z,96226.16
2023-12-26T17:01:05.108Z,96259.31
2023-12-26T17:03:32.272Z,96317.97
2023-12-26T17:06:01.702Z,96295.28
2023-12-26T17:08:28.438Z,96246.81
2023-12-26T17:10:57.445Z,96276.19
2023-12-26T17:13:24.561Z,96220.81
2023-12-26T17:15:51.230Z,96307.75
2023-12-26T17:18:18.064Z,96036.78
2023-12-26T17:20:44.948Z,96323.16
2023-12-26T17:23:11.724Z,96312.47
2023-12-26T17:25:40.064Z,96308.91
2023-12-26T17:28:08.502Z,96340.31
2023-12-26T17:30:36.869Z,96328.25
2023-12-26T17:33:04.299Z,96299.94
2023-12-26T17:35:31.094Z,96302.75
2023-12-26T17:37:58.195Z,96375.09
2023-12-26T17:40:24.944Z,96371.41
2023-12-26T17:42:51.708Z,96347.13
2023-12-26T17:45:18.384Z,96162.06
2023-12-26T17:47:45.078Z,96343.28
2023-12-26T17:50:11.994Z,96357.41
2023-12-26T17:52:38.858Z,96310.81
2023-12-26T17:55:06.107Z,96348.22
2023-12-26T17:57:32.937Z,96271.09
2023-12-26T17:59:59.701Z,96410.69
2023-12-26T18:02:26.454Z,96386.13
2023-12-26T18:04:53.152Z,96461.34
2023-12-26T18:07:19.934Z,96344.91
2023-12-26T18:09:46.580Z,96210.06
2023-12-26T18:12:13.273Z,96383.72
2023-12-26T18:14:39.978Z,96385.13
2023-12-26T18:17:06.655Z,96286.63
2023-12-26T18:19:33.506Z,96122.66
2023-12-26T18:22:00.312Z,96315.19
2023-12-26T18:24:27.145Z,96376.38
2023-12-26T18:26:53.961Z,96334.63
2023-12-26T18:29:20.700Z,96366.88
2023-12-26T18:31:47.779Z,96449.75
2023-12-26T18:34:14.553Z,96370.25
2023-12-26T18:36:41.362Z,96438.13
2023-12-26T18:39:08.701Z,96283.66
2023-12-26T18:41:40.745Z,96419.97
2023-12-26T18:44:10.019Z,96365.31
2023-12-26T18:46:41.207Z,96462.44
2023-12-26T18:49:08.861Z,96455.03
2023-12-26T18:51:35.818Z,96158.84
2023-12-26T18:54:03.147Z,96378.50
2023-12-26T18:56:29.881Z,96389.91
2023-12-26T18:58:57.392Z,96229.78
2023-12-26T19:01:24.260Z,96390.19
2023-12-26T19:03:56.156Z,96224.75
2023-12-26T19:06:23.041Z,96352.03
2023-12-26T19:08:49.778Z,96412.44
2023-12-26T19:11:17.760Z,96378.94
2023-12-26T19:13:44.802Z,96450.00
2023-12-26T19:16:11.747Z,96479.44
2023-12-26T19:18:38.604Z,96413.19
2023-12-26T19:21:05.556Z,96505.09
2023-12-26T19:23:32.245Z,96451.75
2023-12-26T19:25:59.090Z,96459.22
2023-12-26T19:28:26.022Z,96463.00
2023-12-26T19:30:52.854Z,96430.59
2023-12-26T19:33:20.429Z,96456.38
2023-12-26T19:35:47.279Z,96473.56
2023-12-26T19:38:15.124Z,96500.09
2023-12-26T19:40:42.061Z,96396.00
2023-12-26T19:43:08.887Z,96452.75
2023-12-26T19:45:35.720Z,96451.66
2023-12-26T19:48:02.902Z,96442.00
2023-12-26T19:50:29.870Z,96426.31
2023-12-26T19:52:56.730Z,96428.06
2023-12-26T19:55:23.530Z,96470.81
2023-12-26T19:57:50.193Z,96503.66
2023-12-26T20:00:17.062Z,96442.84
2023-12-26T20:02:43.808Z,96301.63
2023-12-26T20:05:11.214Z,96289.72
2023-12-26T20:07:39.144Z,96332.97
2023-12-26T20:10:06.539Z,96513.09
2023-12-26T20:12:33.540Z,96394.16
2023-12-26T20:15:00.581Z,96433.25
2023-12-26T20:17:27.656Z,96500.16
2023-12-26T20:19:54.603Z,96489.31
2023-12-26T20:22:21.451Z,96488.88
2023-12-26T20:24:48.519Z,96491.75
2023-12-26T20:27:15.299Z,96509.38
2023-12-26T20:29:42.206Z,96422.00
2023-12-26T20:32:08.914Z,96501.41
2023-12-26T20:34:35.818Z,96461.63
2023-12-26T20:37:02.645Z,96490.00
2023-12-26T20:39:29.423Z,96531.84
2023-12-26T20:41:56.444Z,96531.16
2023-12-26T20:44:23.734Z,96584.44
2023-12-26T20:46:51.836Z,96508.47
2023-12-26T20:49:20.162Z,96360.63
2023-12-26T20:51:47.211Z,96532.38
2023-12-26T20:54:15.666Z,96516.22
2023-12-26T20:56:43.526Z,96543.13
2023-12-26T20:59:10.583Z,96518.50
2023-12-26T21:01:37.778Z,96560.25
2023-12-26T21:04:05.816Z,96529.25
2023-12-26T21:06:33.064Z,96608.47
2023-12-26T21:08:59.990Z,96495.50
2023-12-26T21:11:26.886Z,96524.28
2023-12-26T21:13:55.778Z,96541.03
2023-12-26T21:16:22.646Z,96559.41
2023-12-26T21:18:52.850Z,96555.44
2023-12-26T21:21:21.045Z,96333.31
2023-12-26T21:23:48.131Z,96602.06
2023-12-26T21:26:15.336Z,96569.72
2023-12-26T21:28:42.304Z,96602.50
2023-12-26T21:31:09.273Z,96625.19
2023-12-26T21:33:37.265Z,96606.69
2023-12-26T21:36:04.929Z,96570.75
2023-12-26T21:38:33.060Z,96619.44
2023-12-26T21:40:59.819Z,96521.09
2023-12-26T21:43:26.594Z,96657.91
2023-12-26T21:45:58.536Z,96648.63
2023-12-26T21:48:25.716Z,96565.28
2023-12-26T21:50:52.773Z,96378.22
2023-12-26T21:53:19.443Z,96520.94
2023-12-26T21:55:46.541Z,96601.59
2023-12-26T21:58:13.258Z,96618.84
2023-12-26T22:00:40.072Z,96607.41
2023-12-26T22:03:07.296Z,96618.03
2023-12-26T22:05:34.050Z,96624.56
2023-12-26T22:08:00.769Z,96571.66
2023-12-26T22:10:27.759Z,96554.50
2023-12-26T22:12:54.517Z,96582.78
2023-12-26T22:15:24.034Z,96585.41
2023-12-26T22:17:51.616Z,96587.69
2023-12-26T22:20:18.991Z,96596.25
2023-12-26T22:22:45.645Z,96461.22
2023-12-26T22:25:12.302Z,96549.44
2023-12-26T22:27:39.066Z,96612.66
2023-12-26T22:30:06.517Z,96580.16
2023-12-26T22:32:33.365Z,96599.44
2023-12-26T22:35:00.332Z,96632.25
2023-12-26T22:37:27.490Z,96507.25
2023-12-26T22:39:54.478Z,96581.09
2023-12-26T22:42:21.164Z,96562.34
2023-12-26T22:44:47.983Z,96644.78
2023-12-26T22:47:14.677Z,96466.56
2023-12-26T22:49:41.975Z,96657.53
2023-12-26T22:52:11.025Z,96619.31
2023-12-26T22:54:40.447Z,96612.31
2023-12-26T22:57:08.397Z,96514.97
2023-12-26T22:59:35.086Z,96648.34
2023-12-26T23:02:03.116Z,96656.34
2023-12-26T23:04:30.021Z,96592.19
2023-12-26T23:06:56.852Z,96660.34
2023-12-26T23:09:23.758Z,96712.06
2023-12-26T23:11:50.740Z,96606.31
2023-12-26T23:14:17.378Z,96473.09
2023-12-26T23:16:45.379Z,96637.47
2023-12-26T23:19:12.826Z,96678.88
2023-12-26T23:21:39.831Z,96650.47
2023-12-26T23:24:07.609Z,96634.41
2023-12-26T23:26:34.603Z,96637.72
2023-12-26T23:29:03.846Z,96687.75
2023-12-26T23:31:32.325Z,96679.84
2023-12-26T23:33:59.625Z,96734.47
2023-12-26T23:36:26.404Z,96713.03
2023-12-26T23:38:53.136Z,96664.13
2023-12-26T23:41:19.831Z,96595.25
2023-12-26T23:43:46.451Z,96654.69
2023-12-26T23:46:13.185Z,96731.50
2023-12-26T23:48:40.378Z,96577.19
2023-12-26T23:51:07.127Z,96678.63
2023-12-26T23:53:33.770Z,96745.66
2023-12-26T23:56:00.493Z,96672.03
2023-12-26T23:58:27.160Z,96716.16
